createdAt,value
2023-02-17T00:01:21.357Z,10.80
2023-02-17T00:03:49.529Z,10.20
2023-02-17T00:06:21.166Z,10.23
2023-02-17T00:08:48.311Z,10.20
2023-02-17T00:11:16.051Z,9.70
2023-02-17T00:13:42.916Z,9.77
2023-02-17T00:16:20.263Z,10.07
2023-02-17T00:18:47.514Z,10.20
2023-02-17T00:21:19.298Z,12.07
2023-02-17T00:23:46.621Z,9.03
2023-02-17T00:26:14.053Z,9.93
2023-02-17T00:28:41.035Z,9.80
2023-02-17T00:31:15.321Z,10.77
2023-02-17T00:33:42.232Z,10.43
2023-02-17T00:36:12.414Z,9.70
2023-02-17T00:38:39.134Z,9.27
2023-02-17T00:41:05.761Z,9.13
2023-02-17T00:43:32.372Z,10.70
2023-02-17T00:45:59.416Z,9.50
2023-02-17T00:48:25.852Z,8.70
2023-02-17T00:50:52.257Z,8.13
2023-02-17T00:53:18.647Z,8.77
2023-02-17T00:55:45.378Z,6.70
2023-02-17T00:58:11.959Z,6.87
2023-02-17T01:00:38.403Z,6.47
2023-02-17T01:03:05.231Z,5.90
2023-02-17T01:05:32.241Z,5.90
2023-02-17T01:07:58.648Z,8.90
2023-02-17T01:10:25.341Z,4.97
2023-02-17T01:12:51.686Z,5.17
2023-02-17T01:15:18.210Z,5.43
2023-02-17T01:17:44.729Z,5.40
2023-02-17T01:20:11.676Z,4.50
2023-02-17T01:22:39.911Z,5.57
2023-02-17T01:25:06.666Z,5.23
2023-02-17T01:27:33.124Z,6.63
2023-02-17T01:29:59.508Z,4.70
2023-02-17T01:32:25.952Z,6.67
2023-02-17T01:34:52.356Z,5.70
2023-02-17T01:37:18.804Z,5.73
2023-02-17T01:39:45.193Z,4.53
2023-02-17T01:42:20.683Z,5.03
2023-02-17T01:45:29.284Z,4.77
2023-02-17T01:48:01.154Z,5.90
2023-02-17T01:50:43.547Z,5.73
2023-02-17T01:53:14.542Z,5.23
2023-02-17T01:55:42.520Z,4.97
2023-02-17T01:58:13.536Z,4.37
2023-02-17T02:00:40.500Z,5.07
2023-02-17T02:03:09.366Z,5.10
2023-02-17T02:05:37.735Z,4.80
2023-02-17T02:08:04.718Z,4.63
2023-02-17T02:10:31.129Z,4.77
2023-02-17T02:12:57.644Z,5.87
2023-02-17T02:15:31.645Z,5.13
2023-02-17T02:17:58.024Z,5.60
2023-02-17T02:20:48.567Z,5.47
2023-02-17T02:23:53.452Z,4.67
2023-02-17T02:26:48.381Z,5.27
2023-02-17T02:29:51.850Z,5.57
2023-02-17T02:32:43.779Z,5.77
2023-02-17T02:35:27.452Z,6.37
2023-02-17T02:38:31.485Z,5.27
2023-02-17T02:41:17.341Z,5.40
2023-02-17T02:43:43.952Z,5.77
2023-02-17T02:46:10.596Z,5.57
2023-02-17T02:48:37.893Z,6.70
2023-02-17T02:51:18.631Z,5.83
2023-02-17T02:54:11.911Z,6.23
2023-02-17T02:56:45.037Z,5.57
2023-02-17T02:59:35.938Z,7.73
2023-02-17T03:02:19.268Z,6.37
2023-02-17T03:04:52.736Z,6.33
2023-02-17T03:07:28.341Z,6.03
2023-02-17T03:09:58.847Z,7.00
2023-02-17T03:12:26.906Z,6.40
2023-02-17T03:14:59.981Z,6.13
2023-02-17T03:17:26.519Z,5.93
2023-02-17T03:19:52.884Z,5.87
2023-02-17T03:22:31.674Z,6.40
2023-02-17T03:25:00.118Z,6.00
2023-02-17T03:27:27.176Z,6.03
2023-02-17T03:29:53.848Z,8.57
2023-02-17T03:32:20.598Z,6.00
2023-02-17T03:34:47.180Z,6.07
2023-02-17T03:37:13.561Z,7.00
2023-02-17T03:39:40.176Z,5.87
2023-02-17T03:42:06.820Z,6.50
2023-02-17T03:44:33.407Z,5.90
2023-02-17T03:46:59.916Z,5.67
2023-02-17T03:49:26.346Z,6.40
2023-02-17T03:51:52.756Z,5.90
2023-02-17T03:54:19.189Z,6.67
2023-02-17T03:56:45.546Z,6.17
2023-02-17T03:59:11.963Z,5.80
2023-02-17T04:01:38.402Z,5.87
2023-02-17T04:04:04.829Z,5.57
2023-02-17T04:06:31.374Z,6.33
2023-02-17T04:08:57.811Z,5.67
2023-02-17T04:11:24.319Z,5.23
2023-02-17T04:13:50.743Z,5.40
2023-02-17T04:16:17.487Z,5.27
2023-02-17T04:18:43.945Z,6.00
2023-02-17T04:21:10.417Z,5.40
2023-02-17T04:23:37.899Z,5.17
2023-02-17T04:26:06.444Z,5.93
2023-02-17T04:28:33.077Z,5.87
2023-02-17T04:31:00.203Z,5.63
2023-02-17T04:33:27.156Z,5.27
2023-02-17T04:35:59.467Z,4.80
2023-02-17T04:38:30.793Z,4.80
2023-02-17T04:40:59.551Z,5.20
2023-02-17T04:43:27.634Z,5.07
2023-02-17T04:45:55.104Z,4.87
2023-02-17T04:48:21.889Z,4.47
2023-02-17T04:50:48.374Z,4.83
2023-02-17T04:53:15.061Z,5.13
2023-02-17T04:55:42.077Z,4.80
2023-02-17T04:58:09.218Z,4.43
2023-02-17T05:00:36.313Z,4.57
2023-02-17T05:03:03.012Z,6.27
2023-02-17T05:05:29.900Z,4.53
2023-02-17T05:07:56.377Z,5.10
2023-02-17T05:10:24.067Z,5.10
2023-02-17T05:12:50.716Z,4.47
2023-02-17T05:15:17.216Z,5.90
2023-02-17T05:17:44.087Z,5.07
2023-02-17T05:20:11.154Z,6.63
2023-02-17T05:22:37.561Z,4.83
2023-02-17T05:25:04.464Z,4.90
2023-02-17T05:27:31.262Z,4.67
2023-02-17T05:29:57.673Z,4.57
2023-02-17T05:32:24.311Z,5.20
2023-02-17T05:34:50.731Z,4.83
2023-02-17T05:37:17.278Z,4.73
2023-02-17T05:39:43.731Z,6.27
2023-02-17T05:42:10.282Z,4.13
2023-02-17T05:44:36.894Z,4.87
2023-02-17T05:47:03.713Z,4.30
2023-02-17T05:49:30.344Z,4.20
2023-02-17T05:51:56.765Z,4.70
2023-02-17T05:54:23.153Z,5.97
2023-02-17T05:56:49.578Z,5.40
2023-02-17T05:59:16.342Z,4.43
2023-02-17T06:01:42.694Z,4.43
2023-02-17T06:04:09.217Z,7.17
2023-02-17T06:06:35.778Z,5.43
2023-02-17T06:09:02.392Z,4.80
2023-02-17T06:11:28.834Z,4.47
2023-02-17T06:13:55.224Z,4.40
2023-02-17T06:16:21.624Z,3.73
2023-02-17T06:18:48.139Z,4.40
2023-02-17T06:21:14.700Z,5.23
2023-02-17T06:23:41.110Z,4.63
2023-02-17T06:26:07.866Z,5.77
2023-02-17T06:28:35.184Z,4.33
2023-02-17T06:31:01.741Z,4.40
2023-02-17T06:33:28.730Z,4.57
2023-02-17T06:35:55.144Z,4.07
2023-02-17T06:38:21.556Z,3.73
2023-02-17T06:40:48.015Z,4.40
2023-02-17T06:43:14.473Z,4.03
2023-02-17T06:45:40.858Z,4.03
2023-02-17T06:48:07.284Z,4.40
2023-02-17T06:50:33.890Z,4.93
2023-02-17T06:53:00.392Z,5.83
2023-02-17T06:55:26.844Z,5.30
2023-02-17T06:57:53.188Z,4.60
2023-02-17T07:00:20.602Z,5.43
2023-02-17T07:02:47.351Z,3.90
2023-02-17T07:05:13.913Z,3.87
2023-02-17T07:07:40.319Z,3.90
2023-02-17T07:10:07.529Z,5.00
2023-02-17T07:12:33.951Z,4.83
2023-02-17T07:15:00.271Z,3.80
2023-02-17T07:17:26.921Z,3.57
2023-02-17T07:19:53.301Z,4.07
2023-02-17T07:22:19.820Z,3.67
2023-02-17T07:24:46.217Z,5.07
2023-02-17T07:27:12.598Z,4.47
2023-02-17T07:29:39.088Z,4.97
2023-02-17T07:32:05.518Z,5.57
2023-02-17T07:34:31.927Z,4.87
2023-02-17T07:36:58.291Z,3.80
2023-02-17T07:39:24.834Z,4.50
2023-02-17T07:41:51.240Z,3.83
2023-02-17T07:44:17.630Z,3.90
2023-02-17T07:46:44.009Z,8.10
2023-02-17T07:49:10.991Z,3.83
2023-02-17T07:51:37.686Z,5.13
2023-02-17T07:54:04.274Z,3.90
2023-02-17T07:56:30.861Z,5.50
2023-02-17T07:58:57.249Z,4.40
2023-02-17T08:01:25.325Z,5.97
2023-02-17T08:03:52.238Z,5.43
2023-02-17T08:06:23.928Z,5.33
2023-02-17T08:09:10.163Z,4.30
2023-02-17T08:11:55.641Z,5.47
2023-02-17T08:14:24.185Z,4.47
2023-02-17T08:16:50.859Z,4.30
2023-02-17T08:19:17.380Z,4.70
2023-02-17T08:21:44.033Z,4.93
2023-02-17T08:24:10.669Z,3.70
2023-02-17T08:26:37.230Z,3.80
2023-02-17T08:29:03.954Z,6.00
2023-02-17T08:31:33.590Z,4.03
2023-02-17T08:34:01.612Z,4.63
2023-02-17T08:36:29.216Z,3.97
2023-02-17T08:38:56.638Z,5.57
2023-02-17T08:41:28.969Z,4.13
2023-02-17T08:43:56.904Z,3.87
2023-02-17T08:46:23.498Z,4.23
2023-02-17T08:48:50.039Z,3.70
2023-02-17T08:51:25.687Z,4.03
2023-02-17T08:53:58.052Z,3.47
2023-02-17T08:56:26.076Z,4.53
2023-02-17T08:58:52.864Z,3.57
2023-02-17T09:01:20.540Z,3.27
2023-02-17T09:03:48.848Z,3.40
2023-02-17T09:06:15.798Z,3.87
2023-02-17T09:08:44.581Z,3.50
2023-02-17T09:11:11.455Z,4.07
2023-02-17T09:13:38.553Z,4.03
2023-02-17T09:16:05.659Z,3.73
2023-02-17T09:18:32.245Z,3.57
2023-02-17T09:21:00.493Z,3.03
2023-02-17T09:23:27.017Z,3.13
2023-02-17T09:26:13.745Z,3.77
2023-02-17T09:28:40.865Z,3.47
2023-02-17T09:31:22.535Z,3.70
2023-02-17T09:33:50.222Z,3.27
2023-02-17T09:36:20.276Z,2.93
2023-02-17T09:38:47.650Z,3.33
2023-02-17T09:41:27.875Z,3.90
2023-02-17T09:43:55.428Z,2.93
2023-02-17T09:46:31.964Z,3.20
2023-02-17T09:49:08.005Z,3.43
2023-02-17T09:52:19.507Z,3.60
2023-02-17T09:55:04.230Z,2.80
2023-02-17T09:57:37.020Z,3.03
2023-02-17T10:00:15.598Z,3.00
2023-02-17T10:02:52.846Z,5.57
2023-02-17T10:05:24.097Z,3.83
2023-02-17T10:07:57.505Z,7.13
2023-02-17T10:10:28.622Z,2.50
2023-02-17T10:12:58.121Z,2.67
2023-02-17T10:15:29.819Z,2.60
2023-02-17T10:18:00.498Z,2.43
2023-02-17T10:20:34.146Z,4.90
2023-02-17T10:23:22.338Z,3.53
2023-02-17T10:26:13.995Z,2.37
2023-02-17T10:29:05.317Z,2.57
2023-02-17T10:31:43.213Z,5.10
2023-02-17T10:34:17.731Z,4.07
2023-02-17T10:37:12.328Z,2.60
2023-02-17T10:39:48.917Z,3.90
2023-02-17T10:42:38.137Z,2.43
2023-02-17T10:45:06.706Z,1.97
2023-02-17T10:47:36.641Z,3.77
2023-02-17T10:50:05.655Z,3.03
2023-02-17T10:52:40.970Z,2.83
2023-02-17T10:55:35.429Z,1.90
2023-02-17T10:58:12.041Z,1.90
2023-02-17T11:00:38.424Z,3.97
2023-02-17T11:03:04.968Z,5.00
2023-02-17T11:05:34.698Z,2.27
2023-02-17T11:08:28.458Z,3.33
2023-02-17T11:11:07.948Z,2.07
2023-02-17T11:13:38.083Z,2.50
2023-02-17T11:16:06.095Z,3.83
2023-02-17T11:18:37.865Z,2.93
2023-02-17T11:21:11.305Z,2.20
2023-02-17T11:23:51.235Z,3.03
2023-02-17T11:26:23.200Z,2.10
2023-02-17T11:28:49.690Z,4.87
2023-02-17T11:31:42.854Z,3.70
2023-02-17T11:34:21.549Z,2.17
2023-02-17T11:37:02.259Z,1.97
2023-02-17T11:39:29.389Z,1.90
2023-02-17T11:41:55.768Z,3.27
2023-02-17T11:44:24.744Z,3.30
2023-02-17T11:47:12.806Z,5.53
2023-02-17T11:50:04.661Z,3.50
2023-02-17T11:52:46.716Z,6.60
2023-02-17T11:55:37.274Z,10.67
2023-02-17T11:58:23.387Z,8.57
2023-02-17T12:01:18.950Z,3.53
2023-02-17T12:04:07.405Z,6.87
2023-02-17T12:06:49.803Z,3.87
2023-02-17T12:09:41.246Z,7.53
2023-02-17T12:12:35.080Z,5.73
2023-02-17T12:15:38.190Z,3.93
2023-02-17T12:18:27.662Z,7.10
2023-02-17T12:21:14.257Z,4.70
2023-02-17T12:24:02.303Z,7.43
2023-02-17T12:26:44.912Z,13.47
2023-02-17T12:29:34.322Z,5.60
2023-02-17T12:32:09.198Z,5.73
2023-02-17T12:34:53.723Z,3.63
2023-02-17T12:37:27.337Z,5.63
2023-02-17T12:39:59.604Z,7.40
2023-02-17T12:42:47.349Z,5.97
2023-02-17T12:45:13.698Z,6.53
2023-02-17T12:48:04.603Z,6.03
2023-02-17T12:50:38.648Z,9.43
2023-02-17T12:53:12.498Z,11.57
2023-02-17T12:55:53.072Z,13.97
2023-02-17T12:58:26.556Z,10.37
2023-02-17T13:01:06.802Z,9.53
2023-02-17T13:03:35.962Z,13.77
2023-02-17T13:06:28.682Z,8.30
2023-02-17T13:09:29.348Z,6.77
2023-02-17T13:12:30.442Z,16.20
2023-02-17T13:15:02.955Z,13.97
2023-02-17T13:17:51.658Z,23.83
2023-02-17T13:20:18.057Z,15.13
2023-02-17T13:22:45.641Z,18.67
2023-02-17T13:25:37.263Z,16.50
2023-02-17T13:28:34.100Z,10.93
2023-02-17T13:31:10.791Z,10.83
2023-02-17T13:33:44.188Z,19.47
2023-02-17T13:36:20.699Z,21.87
2023-02-17T13:39:31.044Z,17.57
2023-02-17T13:41:59.762Z,8.60
2023-02-17T13:44:41.953Z,13.10
2023-02-17T13:47:18.158Z,14.63
2023-02-17T13:49:56.763Z,11.80
2023-02-17T13:52:29.689Z,7.23
2023-02-17T13:55:05.311Z,11.40
2023-02-17T13:57:34.867Z,6.73
2023-02-17T14:00:24.821Z,12.23
2023-02-17T14:03:22.670Z,13.23
2023-02-17T14:05:51.474Z,10.10
2023-02-17T14:08:32.331Z,9.53
2023-02-17T14:11:06.318Z,8.10
2023-02-17T14:13:34.081Z,13.40
2023-02-17T14:16:00.893Z,12.23
2023-02-17T14:18:32.312Z,9.50
2023-02-17T14:21:06.286Z,5.50
2023-02-17T14:23:49.080Z,12.27
2023-02-17T14:26:47.355Z,8.00
2023-02-17T14:29:15.283Z,6.03
2023-02-17T14:31:47.656Z,6.90
2023-02-17T14:34:26.411Z,6.73
2023-02-17T14:36:52.883Z,7.43
2023-02-17T14:39:19.321Z,4.87
2023-02-17T14:41:45.772Z,2.83
2023-02-17T14:44:12.269Z,4.13
2023-02-17T14:46:39.718Z,2.93
2023-02-17T14:49:06.182Z,4.90
2023-02-17T14:51:36.868Z,8.03
2023-02-17T14:54:12.552Z,7.60
2023-02-17T14:56:44.459Z,3.57
2023-02-17T14:59:10.952Z,7.07
2023-02-17T15:01:37.518Z,7.47
2023-02-17T15:04:04.035Z,5.83
2023-02-17T15:06:39.085Z,4.13
2023-02-17T15:09:09.764Z,3.90
2023-02-17T15:11:37.385Z,5.83
2023-02-17T15:14:04.606Z,6.10
2023-02-17T15:16:31.059Z,2.30
2023-02-17T15:18:58.063Z,5.80
2023-02-17T15:21:33.658Z,6.60
2023-02-17T15:24:01.764Z,3.53
2023-02-17T15:26:32.956Z,3.23
2023-02-17T15:28:59.940Z,7.33
2023-02-17T15:31:29.901Z,5.43
2023-02-17T15:33:58.297Z,2.57
2023-02-17T15:36:25.620Z,2.67
2023-02-17T15:38:52.205Z,4.00
2023-02-17T15:41:25.517Z,3.20
2023-02-17T15:43:54.428Z,4.10
2023-02-17T15:46:25.279Z,2.50
2023-02-17T15:48:52.382Z,3.63
2023-02-17T15:51:19.753Z,3.07
2023-02-17T15:53:47.723Z,3.23
2023-02-17T15:56:29.888Z,2.43
2023-02-17T15:58:58.029Z,3.30
2023-02-17T16:01:34.890Z,1.53
2023-02-17T16:04:01.408Z,4.27
2023-02-17T16:06:28.920Z,4.00
2023-02-17T16:08:58.342Z,3.20
2023-02-17T16:11:25.461Z,2.00
2023-02-17T16:13:52.095Z,2.80
2023-02-17T16:16:22.554Z,3.60
2023-02-17T16:18:50.358Z,2.43
2023-02-17T16:21:16.958Z,2.87
2023-02-17T16:23:43.809Z,2.83
2023-02-17T16:26:33.634Z,1.93
2023-02-17T16:29:02.115Z,1.60
2023-02-17T16:31:32.305Z,3.53
2023-02-17T16:34:00.440Z,2.40
2023-02-17T16:36:31.881Z,2.70
2023-02-17T16:39:00.555Z,1.77
2023-02-17T16:41:26.946Z,6.50
2023-02-17T16:43:53.324Z,1.77
2023-02-17T16:46:25.361Z,1.63
2023-02-17T16:48:51.781Z,2.10
2023-02-17T16:51:18.146Z,1.87
2023-02-17T16:53:44.548Z,3.87
2023-02-17T16:56:17.808Z,4.30
2023-02-17T16:58:44.730Z,2.23
2023-02-17T17:01:12.561Z,2.67
2023-02-17T17:03:41.000Z,2.43
2023-02-17T17:06:20.347Z,2.50
2023-02-17T17:08:47.228Z,1.80
2023-02-17T17:11:18.940Z,2.20
2023-02-17T17:13:45.860Z,2.40
2023-02-17T17:16:20.647Z,3.77
2023-02-17T17:18:48.050Z,2.73
2023-02-17T17:21:17.570Z,2.50
2023-02-17T17:23:46.253Z,2.60
2023-02-17T17:26:20.740Z,4.40
2023-02-17T17:28:49.087Z,2.63
2023-02-17T17:31:16.074Z,2.47
2023-02-17T17:33:42.756Z,5.27
2023-02-17T17:36:19.452Z,2.50
2023-02-17T17:38:46.047Z,2.70
2023-02-17T17:41:13.400Z,5.67
2023-02-17T17:43:41.172Z,2.77
2023-02-17T17:46:20.284Z,2.40
2023-02-17T17:48:47.498Z,1.80
2023-02-17T17:51:16.334Z,2.03
2023-02-17T17:53:43.531Z,3.93
2023-02-17T17:56:22.730Z,2.30
2023-02-17T17:58:49.563Z,2.43
2023-02-17T18:01:16.241Z,1.97
2023-02-17T18:03:43.323Z,2.70
2023-02-17T18:06:16.012Z,3.33
2023-02-17T18:08:44.930Z,2.47
2023-02-17T18:11:14.403Z,5.37
2023-02-17T18:13:41.557Z,3.47
2023-02-17T18:16:08.434Z,2.17
2023-02-17T18:18:35.844Z,2.53
2023-02-17T18:21:02.529Z,2.43
2023-02-17T18:23:28.916Z,2.00
2023-02-17T18:25:55.296Z,2.63
2023-02-17T18:28:21.780Z,2.30
2023-02-17T18:30:48.212Z,2.60
2023-02-17T18:33:14.839Z,2.20
2023-02-17T18:35:43.642Z,4.43
2023-02-17T18:38:10.195Z,2.70
2023-02-17T18:40:41.026Z,3.37
2023-02-17T18:43:08.636Z,2.50
2023-02-17T18:45:35.540Z,2.43
2023-02-17T18:48:02.142Z,3.13
2023-02-17T18:50:33.016Z,2.50
2023-02-17T18:53:00.124Z,2.93
2023-02-17T18:55:26.727Z,2.97
2023-02-17T18:57:53.999Z,2.67
2023-02-17T19:00:20.589Z,2.73
2023-02-17T19:02:47.281Z,2.87
2023-02-17T19:05:13.827Z,3.27
2023-02-17T19:07:40.303Z,3.00
2023-02-17T19:10:07.353Z,3.00
2023-02-17T19:12:34.258Z,2.90
2023-02-17T19:15:00.756Z,2.83
2023-02-17T19:17:27.222Z,3.33
2023-02-17T19:19:53.606Z,3.13
2023-02-17T19:22:20.195Z,2.97
2023-02-17T19:24:51.350Z,3.57
2023-02-17T19:27:17.994Z,3.80
2023-02-17T19:29:44.408Z,4.40
2023-02-17T19:32:10.825Z,5.17
2023-02-17T19:34:38.614Z,3.83
2023-02-17T19:37:05.350Z,3.80
2023-02-17T19:39:31.969Z,3.40
2023-02-17T19:41:58.344Z,3.50
2023-02-17T19:44:24.701Z,4.00
2023-02-17T19:46:51.234Z,4.13
2023-02-17T19:49:17.637Z,4.33
2023-02-17T19:51:44.324Z,4.23
2023-02-17T19:54:10.713Z,3.90
2023-02-17T19:56:38.971Z,4.00
2023-02-17T19:59:05.482Z,3.87
2023-02-17T20:01:32.822Z,3.63
2023-02-17T20:04:01.598Z,4.27
2023-02-17T20:06:31.037Z,4.30
2023-02-17T20:09:04.319Z,3.67
2023-02-17T20:11:31.939Z,4.00
2023-02-17T20:13:59.958Z,4.90
2023-02-17T20:16:27.367Z,4.33
2023-02-17T20:18:55.478Z,3.93
2023-02-17T20:21:24.909Z,6.27
2023-02-17T20:23:52.463Z,4.00
2023-02-17T20:26:22.442Z,4.00
2023-02-17T20:28:50.134Z,5.63
2023-02-17T20:31:16.922Z,4.10
2023-02-17T20:33:44.372Z,4.27
2023-02-17T20:36:11.788Z,4.47
2023-02-17T20:38:39.594Z,4.97
2023-02-17T20:41:08.359Z,4.43
2023-02-17T20:43:36.390Z,5.27
2023-02-17T20:46:02.984Z,4.63
2023-02-17T20:48:29.416Z,4.33
2023-02-17T20:50:56.868Z,4.63
2023-02-17T20:53:23.865Z,4.53
2023-02-17T20:55:50.974Z,4.50
2023-02-17T20:58:18.071Z,4.30
2023-02-17T21:00:44.870Z,4.87
2023-02-17T21:03:11.452Z,4.77
2023-02-17T21:05:38.033Z,4.90
2023-02-17T21:08:04.964Z,4.97
2023-02-17T21:10:32.726Z,4.70
2023-02-17T21:12:59.469Z,5.37
2023-02-17T21:15:27.453Z,5.07
2023-02-17T21:17:54.171Z,5.70
2023-02-17T21:20:22.093Z,6.87
2023-02-17T21:22:49.280Z,6.27
2023-02-17T21:25:15.849Z,6.37
2023-02-17T21:27:42.272Z,5.90
2023-02-17T21:30:10.228Z,6.33
2023-02-17T21:32:37.089Z,6.23
2023-02-17T21:35:03.766Z,5.70
2023-02-17T21:37:30.150Z,5.93
2023-02-17T21:39:56.879Z,6.00
2023-02-17T21:42:44.661Z,6.47
2023-02-17T21:45:12.122Z,6.47
2023-02-17T21:47:38.496Z,6.40
2023-02-17T21:50:05.514Z,5.80
2023-02-17T21:52:32.017Z,6.53
2023-02-17T21:54:58.376Z,5.80
2023-02-17T21:57:24.726Z,8.97
2023-02-17T21:59:51.160Z,6.43
2023-02-17T22:02:17.827Z,5.60
2023-02-17T22:04:44.261Z,7.03
2023-02-17T22:07:11.676Z,6.10
2023-02-17T22:09:38.064Z,5.90
2023-02-17T22:12:04.630Z,5.87
2023-02-17T22:14:31.056Z,6.03
2023-02-17T22:16:57.519Z,5.93
2023-02-17T22:19:24.826Z,5.23
2023-02-17T22:21:52.000Z,5.73
2023-02-17T22:24:20.655Z,5.80
2023-02-17T22:26:48.633Z,5.07
2023-02-17T22:29:15.138Z,6.37
2023-02-17T22:31:41.661Z,5.53
2023-02-17T22:34:10.006Z,5.07
2023-02-17T22:36:36.924Z,7.33
2023-02-17T22:39:05.747Z,5.03
2023-02-17T22:41:33.325Z,6.20
2023-02-17T22:44:00.882Z,6.03
2023-02-17T22:46:27.856Z,7.67
2023-02-17T22:48:56.081Z,6.60
2023-02-17T22:51:28.701Z,6.27
2023-02-17T22:53:55.649Z,6.33
2023-02-17T22:56:23.014Z,6.57
2023-02-17T22:58:55.287Z,6.60
2023-02-17T23:01:22.388Z,6.93
2023-02-17T23:03:53.906Z,7.30
2023-02-17T23:06:26.527Z,7.50
2023-02-17T23:08:54.035Z,7.07
2023-02-17T23:11:43.750Z,7.80
2023-02-17T23:14:12.048Z,6.90
2023-02-17T23:16:38.729Z,7.40
2023-02-17T23:19:10.662Z,7.10
2023-02-17T23:21:38.088Z,6.67
2023-02-17T23:24:04.966Z,6.67
2023-02-17T23:26:31.545Z,6.97
2023-02-17T23:28:59.437Z,12.90
2023-02-17T23:31:25.942Z,6.27
2023-02-17T23:33:52.345Z,6.60
2023-02-17T23:36:18.872Z,6.47
2023-02-17T23:38:45.267Z,6.83
2023-02-17T23:41:11.928Z,6.73
2023-02-17T23:43:38.283Z,7.30
2023-02-17T23:46:05.033Z,6.53
2023-02-17T23:48:31.507Z,7.13
2023-02-17T23:50:59.790Z,6.97
2023-02-17T23:53:26.757Z,7.10
2023-02-17T23:56:04.113Z,6.73
2023-02-17T23:58:30.804Z,6.90
